To NAV CANADA Home Page Login to a new session Search on AWWS site Feedback and Comments Disclaimer Vers la page française équivalente Tips FAQ What's new on the site To the Forecasts and Observations / NOTAM section To "File a Flight Plan" website Publications and other links Update of the User's profile FIC Telephone Numbers My Weather Data Folder Route Weather Data Regional Weather Data Local Weather Data To the Forecasts and Observations / NOTAM section
Request Generated 02/10/2016 at 17:30:59 UTC . Weather information available at that time is displayed.

METAR/TAF

TRENTON/ON    

METAR CYTR 101700Z CCA 28008KT 15SM OVC020 M03/M07 A2959 RMK SC8 /S01/ SLP027=
METAR CYTR 101700Z 28008KT 15SM OVC020 M03/M07 A2959 RMK SC8 SLP027=
SPECI CYTR 101645Z 33007KT 12SM BKN016 OVC250 M03/M07 A2959 RMK SC7CI0 SLP027=
SPECI CYTR 101626Z 31007KT 6SM -SN FEW010 BKN027 OVC250 M04/M07 A2959 RMK SF1SC6CI1 PCPN VRY LGT SF TR SLP027=
SPECI CYTR 101612Z 31007KT 2SM -SN SCT010 BKN036 OVC250 M04/M06 A2959 RMK SF3SC4CI0 VIS VRB 11/2-21/2 SLP027=
METAR CYTR 101600Z 30008KT 1 1/2SM -SN BKN006 OVC037 M04/M06 A2959 RMK SF5SC3 SLP027=
METAR CYTR 101500Z 32007KT 1 1/2SM -SN OVC010 M04/M06 A2958 RMK SF8 SLP022=

TAF CYTR 101730Z 1018/1118 34010KT P6SM BKN030 OVC060 TEMPO 1018/1104
4SM -SHSN BKN020
FM110700 28008KT P6SM FEW030 SCT070 SCT100
FM111200 29010KT P6SM -SHSN BKN030 OVC100
RMK NXT FCST BY 110000Z=
Your time UTC time
Weather data provided by Environment Canada and NAV CANADA